Time;durP1;ratioP1;P1;durP2;ratioP2;P2;SDS_P1;SDS_P2;PMS_P1;PMS_P2;Temp;Humidity;BMP_temperature;BMP_pressure;BME280_temperature;BME280_humidity;BME280_pressure;Samples;Min_cycle;Max_cycle;Signal;HPM_P1;HPM_P2
2022/09/29 00:00:49;;;;;;;7.30;4.50;;;;;;;6.57;100.00;96679.63;5100696;28;20518;-66
2022/09/29 00:03:16;;;;;;;7.17;4.67;;;;;;;6.61;100.00;96685.47;5099607;28;20230;-66
2022/09/29 00:05:48;;;;;;;8.57;5.03;;;;;;;6.64;100.00;96686.06;5100544;28;20230;-66
2022/09/29 00:08:15;;;;;;;8.80;4.80;;;;;;;6.68;100.00;96682.28;5097830;28;20285;-66
2022/09/29 00:10:44;;;;;;;7.40;5.33;;;;;;;6.70;100.00;96679.50;5099896;28;20324;-66
2022/09/29 00:13:10;;;;;;;7.40;5.10;;;;;;;6.69;100.00;96678.69;5100232;28;20314;-66
2022/09/29 00:15:37;;;;;;;8.23;5.43;;;;;;;6.70;100.00;96688.22;5098918;28;20595;-66
2022/09/29 00:18:04;;;;;;;7.73;5.17;;;;;;;6.68;100.00;96670.94;5099791;28;20262;-64
2022/09/29 00:20:31;;;;;;;8.97;5.63;;;;;;;6.73;100.00;96674.84;5101017;28;20226;-65
2022/09/29 00:22:58;;;;;;;6.87;5.10;;;;;;;6.78;100.00;96667.47;5098655;28;20255;-66
2022/09/29 00:25:24;;;;;;;8.80;4.63;;;;;;;6.79;100.00;96666.50;5100157;28;20292;-65
2022/09/29 00:27:52;;;;;;;6.37;5.20;;;;;;;6.83;100.00;96662.69;5099586;28;20223;-65
2022/09/29 00:30:19;;;;;;;6.70;5.07;;;;;;;6.83;100.00;96660.06;5097651;28;20324;-65
2022/09/29 00:32:46;;;;;;;7.13;4.93;;;;;;;6.89;100.00;96664.03;5114932;28;20261;-65
2022/09/29 00:35:12;;;;;;;7.33;5.27;;;;;;;6.94;100.00;96665.34;5117060;28;20261;-66
2022/09/29 00:37:39;;;;;;;8.13;5.73;;;;;;;6.95;100.00;96659.13;5115798;28;20274;-65
2022/09/29 00:40:06;;;;;;;7.37;5.50;;;;;;;7.01;100.00;96663.91;5115690;28;20240;-66
2022/09/29 00:42:33;;;;;;;7.63;5.47;;;;;;;7.04;100.00;96663.66;5116892;28;20341;-66
2022/09/29 00:45:16;;;;;;;7.30;5.30;;;;;;;7.04;100.00;96657.56;5116091;28;20268;-66
2022/09/29 00:47:47;;;;;;;7.30;5.50;;;;;;;7.09;100.00;96661.50;5114751;28;20257;-65
2022/09/29 00:50:20;;;;;;;7.37;5.57;;;;;;;7.11;100.00;96654.34;5116315;28;20346;-65
2022/09/29 00:52:51;;;;;;;7.67;5.87;;;;;;;7.13;100.00;96647.19;5115959;28;20224;-65
2022/09/29 00:55:23;;;;;;;7.47;5.47;;;;;;;7.11;100.00;96646.47;5112787;28;20261;-65
2022/09/29 00:57:56;;;;;;;8.90;5.60;;;;;;;7.14;100.00;96654.09;5114467;28;20233;-65
2022/09/29 01:00:24;;;;;;;8.07;5.20;;;;;;;7.15;100.00;96650.50;5114332;28;20255;-65
2022/09/29 01:02:57;;;;;;;7.70;5.10;;;;;;;7.14;100.00;96656.72;5116299;28;20625;-65
2022/09/29 01:05:31;;;;;;;7.20;5.53;;;;;;;7.14;100.00;96648.84;5113889;28;20268;-65
2022/09/29 01:08:01;;;;;;;7.47;5.80;;;;;;;7.13;100.00;96652.44;5116216;28;20292;-65
2022/09/29 01:10:28;;;;;;;6.87;5.30;;;;;;;7.09;100.00;96652.81;5116139;28;20284;-65
2022/09/29 01:12:55;;;;;;;7.87;5.20;;;;;;;6.97;100.00;96641.44;5115485;28;20272;-65
2022/09/29 01:15:24;;;;;;;6.10;4.90;;;;;;;6.89;100.00;96643.03;5114530;28;20291;-65
2022/09/29 01:17:50;;;;;;;5.93;5.10;;;;;;;6.78;100.00;96645.66;5115838;28;20260;-65
2022/09/29 01:20:19;;;;;;;7.33;5.07;;;;;;;6.76;100.00;96642.28;5115204;28;20307;-65
2022/09/29 01:23:19;;;;;;;7.47;5.40;;;;;;;6.75;100.00;96641.47;5116104;28;20226;-66
2022/09/29 01:26:07;;;;;;;9.27;6.00;;;;;;;6.76;100.00;96642.28;5114281;28;20313;-65
2022/09/29 01:29:04;;;;;;;7.27;5.80;;;;;;;6.76;100.00;96648.38;5114796;28;20261;-65
2022/09/29 01:31:37;;;;;;;8.23;6.20;;;;;;;6.81;100.00;96640.13;5100354;28;20269;-65
2022/09/29 01:34:11;;;;;;;7.20;5.70;;;;;;;6.88;100.00;96652.69;5108830;28;20572;-67
2022/09/29 01:36:47;;;;;;;9.67;6.47;;;;;;;6.96;100.00;96647.66;5115314;28;20218;-67
2022/09/29 01:39:20;;;;;;;12.57;6.73;;;;;;;7.05;100.00;96646.09;5097621;28;20262;-66
2022/09/29 01:41:51;;;;;;;9.73;6.40;;;;;;;7.12;100.00;96640.25;5098031;28;20261;-65
2022/09/29 01:44:26;;;;;;;10.90;6.30;;;;;;;7.21;100.00;96641.31;5097283;28;20526;-65
2022/09/29 01:46:59;;;;;;;10.13;7.00;;;;;;;7.32;100.00;96639.50;5098849;28;20302;-65
2022/09/29 01:49:30;;;;;;;9.37;6.50;;;;;;;7.41;100.00;96647.47;5097599;28;20284;-65
2022/09/29 01:52:02;;;;;;;8.10;6.40;;;;;;;7.46;100.00;96649.75;5095611;28;20260;-65
2022/09/29 01:54:36;;;;;;;7.83;6.70;;;;;;;7.49;100.00;96647.72;5109691;28;20254;-65
2022/09/29 01:57:08;;;;;;;8.00;6.57;;;;;;;7.55;100.00;96649.00;5096730;28;20254;-65
2022/09/29 01:59:43;;;;;;;8.87;6.77;;;;;;;7.58;100.00;96651.38;5097446;28;20258;-66
2022/09/29 02:02:15;;;;;;;7.87;6.27;;;;;;;7.62;100.00;96645.78;5097427;28;20258;-65
2022/09/29 02:04:46;;;;;;;9.97;6.90;;;;;;;7.63;100.00;96646.59;5113986;28;20269;-66
2022/09/29 02:07:17;;;;;;;10.43;6.77;;;;;;;7.63;100.00;96651.84;5115113;28;20281;-65
2022/09/29 02:09:49;;;;;;;8.10;6.43;;;;;;;7.68;100.00;96649.69;5115141;28;20282;-65
2022/09/29 02:12:21;;;;;;;9.50;6.90;;;;;;;7.71;100.00;96649.47;5113585;28;20263;-67
2022/09/29 02:14:50;;;;;;;10.17;7.13;;;;;;;7.73;100.00;96652.78;5115487;28;20566;-65
2022/09/29 02:17:20;;;;;;;10.60;6.73;;;;;;;7.76;100.00;96649.88;5115303;28;20257;-65
2022/09/29 02:19:49;;;;;;;10.03;6.70;;;;;;;7.79;100.00;96652.28;5113082;28;20257;-65
2022/09/29 02:22:16;;;;;;;10.33;6.90;;;;;;;7.81;100.00;96651.22;5114223;28;20230;-65
2022/09/29 02:24:44;;;;;;;8.90;6.90;;;;;;;7.84;100.00;96645.69;5115414;28;20632;-66
2022/09/29 02:27:11;;;;;;;9.37;6.87;;;;;;;7.86;100.00;96658.72;5114508;28;20264;-66
2022/09/29 02:29:38;;;;;;;9.37;6.13;;;;;;;7.92;100.00;96658.22;5115253;28;20305;-66
2022/09/29 02:32:08;;;;;;;10.30;6.27;;;;;;;7.92;100.00;96663.47;5113831;28;20311;-67
2022/09/29 02:34:41;;;;;;;9.73;6.13;;;;;;;7.95;100.00;96660.59;5102351;28;20281;-65
2022/09/29 02:37:21;;;;;;;10.57;6.70;;;;;;;7.95;100.00;96665.88;5106911;28;20258;-65
2022/09/29 02:40:00;;;;;;;10.43;6.60;;;;;;;7.98;100.00;96663.81;5114175;28;20310;-65
2022/09/29 02:42:31;;;;;;;7.60;6.00;;;;;;;8.04;100.00;96667.72;5114688;28;20249;-66
2022/09/29 02:45:20;;;;;;;9.80;6.87;;;;;;;8.04;100.00;96663.31;5113681;28;20301;-65
2022/09/29 02:48:02;;;;;;;7.37;6.17;;;;;;;8.06;100.00;96665.78;5113804;28;20300;-65
2022/09/29 02:51:00;;;;;;;8.40;6.43;;;;;;;8.07;100.00;96662.19;5114371;28;20278;-65
2022/09/29 02:53:41;;;;;;;8.53;5.80;;;;;;;8.08;100.00;96669.16;5080999;28;20270;-65
2022/09/29 02:56:17;;;;;;;10.23;6.47;;;;;;;8.09;100.00;96665.56;5100715;28;20263;-67
2022/09/29 02:58:50;;;;;;;8.03;6.03;;;;;;;8.11;100.00;96663.63;5100596;28;20259;-66
2022/09/29 03:01:17;;;;;;;7.17;6.03;;;;;;;8.11;100.00;96648.69;5100885;28;20268;-67
2022/09/29 03:03:44;;;;;;;8.50;6.00;;;;;;;8.12;100.00;96649.50;5118002;28;20523;-67
2022/09/29 03:06:13;;;;;;;10.40;6.17;;;;;;;8.11;100.00;96653.09;5119147;28;20672;-66
2022/09/29 03:08:40;;;;;;;7.77;6.20;;;;;;;8.13;100.00;96643.28;5118886;28;20269;-65
2022/09/29 03:11:06;;;;;;;7.60;5.43;;;;;;;8.11;100.00;96642.59;5116504;28;20277;-66
2022/09/29 03:13:33;;;;;;;6.93;5.57;;;;;;;8.14;100.00;96642.34;5116287;28;20266;-66
2022/09/29 03:16:00;;;;;;;8.13;5.83;;;;;;;8.14;100.00;96637.09;5100501;28;20259;-66
2022/09/29 03:18:27;;;;;;;8.67;5.80;;;;;;;8.16;100.00;96632.50;5099506;28;20227;-67
2022/09/29 03:20:54;;;;;;;7.23;5.67;;;;;;;8.17;100.00;96632.41;5100444;28;20221;-66
2022/09/29 03:23:22;;;;;;;5.30;4.07;;;;;;;8.14;100.00;96637.09;5101404;28;20634;-66
2022/09/29 03:25:48;;;;;;;6.03;4.10;;;;;;;7.96;100.00;96634.16;5099872;28;20669;-66
2022/09/29 03:28:16;;;;;;;7.47;4.27;;;;;;;7.83;100.00;96637.94;5099996;28;20262;-66
2022/09/29 03:30:43;;;;;;;6.33;4.40;;;;;;;7.80;100.00;96641.66;5100134;28;20250;-66
2022/09/29 03:33:10;;;;;;;4.77;4.03;;;;;;;7.80;100.00;96636.38;5100990;28;20221;-65
2022/09/29 03:35:37;;;;;;;5.77;5.17;;;;;;;7.79;100.00;96631.25;5109042;28;20591;-66
2022/09/29 03:38:03;;;;;;;4.47;4.03;;;;;;;7.75;100.00;96624.56;5116734;28;20261;-65
2022/09/29 03:40:32;;;;;;;5.17;4.20;;;;;;;7.70;100.00;96631.97;5119013;28;20258;-65
2022/09/29 03:42:58;;;;;;;5.17;4.50;;;;;;;7.66;100.00;96628.78;5117877;28;20271;-64
2022/09/29 03:45:25;;;;;;;6.03;4.70;;;;;;;7.61;100.00;96622.22;5119092;28;20261;-65
2022/09/29 03:47:51;;;;;;;5.50;4.67;;;;;;;7.59;100.00;96624.16;5118627;28;20257;-65
2022/09/29 03:50:18;;;;;;;5.30;4.60;;;;;;;7.55;100.00;96625.34;5117890;28;20277;-65
2022/09/29 03:52:45;;;;;;;7.00;4.70;;;;;;;7.45;100.00;96629.66;5118217;28;20257;-66
2022/09/29 03:55:11;;;;;;;7.43;5.00;;;;;;;7.33;100.00;96625.41;5106480;28;20602;-66
2022/09/29 03:57:39;;;;;;;7.23;4.80;;;;;;;7.23;100.00;96630.56;5108201;28;20274;-65
2022/09/29 04:00:07;;;;;;;8.37;5.00;;;;;;;7.16;100.00;96620.69;5099309;28;20262;-65
2022/09/29 04:02:34;;;;;;;7.87;4.90;;;;;;;7.10;100.00;96631.66;5099114;28;20533;-65
2022/09/29 04:05:01;;;;;;;5.87;5.23;;;;;;;7.09;100.00;96629.16;5096674;28;20231;-65
2022/09/29 04:07:27;;;;;;;9.10;5.53;;;;;;;6.99;100.00;96634.31;5099151;28;20281;-65
2022/09/29 04:09:54;;;;;;;6.33;5.13;;;;;;;6.93;100.00;96634.78;5098835;28;20262;-65
2022/09/29 04:12:21;;;;;;;7.13;5.20;;;;;;;6.90;100.00;96629.75;5098758;28;20278;-65
2022/09/29 04:14:49;;;;;;;6.67;5.10;;;;;;;6.89;100.00;96628.09;5099160;28;20262;-66
2022/09/29 04:17:15;;;;;;;5.10;4.37;;;;;;;6.85;100.00;96626.66;5098803;28;20665;-66
2022/09/29 04:19:42;;;;;;;7.10;4.77;;;;;;;6.82;100.00;96632.16;5097967;28;20262;-66
2022/09/29 04:22:10;;;;;;;6.10;4.17;;;;;;;6.76;100.00;96627.38;5099312;28;20233;-66
2022/09/29 04:24:37;;;;;;;5.20;4.20;;;;;;;6.71;100.00;96628.69;5098889;28;20228;-66
2022/09/29 04:27:04;;;;;;;6.07;3.80;;;;;;;6.65;100.00;96630.00;5098042;28;20262;-66
2022/09/29 04:29:31;;;;;;;5.27;4.43;;;;;;;6.63;100.00;96631.91;5096847;28;20261;-65
2022/09/29 04:31:59;;;;;;;4.60;4.10;;;;;;;6.64;100.00;96622.22;5099258;28;20273;-65
2022/09/29 04:34:25;;;;;;;5.90;4.47;;;;;;;6.61;100.00;96623.34;5100007;28;20678;-65
2022/09/29 04:36:52;;;;;;;6.03;3.97;;;;;;;6.60;100.00;96620.81;5105872;28;20265;-66
2022/09/29 04:39:19;;;;;;;5.47;4.37;;;;;;;6.54;100.00;96621.28;5117415;28;20282;-66
2022/09/29 04:41:45;;;;;;;4.77;4.27;;;;;;;6.45;100.00;96628.06;5116781;28;20260;-65
2022/09/29 04:44:12;;;;;;;6.87;4.60;;;;;;;6.39;100.00;96628.53;5118022;28;20268;-65
2022/09/29 04:46:38;;;;;;;6.53;5.00;;;;;;;6.34;100.00;96628.06;5117800;28;20288;-65
2022/09/29 04:49:06;;;;;;;5.37;4.63;;;;;;;6.33;100.00;96630.78;5116659;28;20222;-65
2022/09/29 04:51:33;;;;;;;5.97;4.37;;;;;;;6.29;100.00;96629.38;5117115;28;20336;-65
2022/09/29 04:54:00;;;;;;;4.80;4.27;;;;;;;6.26;100.00;96638.31;5113808;28;20222;-65
2022/09/29 04:56:30;;;;;;;6.03;4.73;;;;;;;6.22;100.00;96631.59;5107306;28;20250;-66
2022/09/29 04:58:56;;;;;;;5.20;4.70;;;;;;;6.23;100.00;96640.31;5097722;28;20565;-66
2022/09/29 05:01:23;;;;;;;5.73;4.83;;;;;;;6.19;100.00;96642.34;5098235;28;20254;-65
2022/09/29 05:03:50;;;;;;;5.43;4.93;;;;;;;6.18;100.00;96648.50;5097230;28;20267;-65
2022/09/29 05:06:18;;;;;;;5.80;4.90;;;;;;;6.28;100.00;96648.69;5097557;28;20272;-65
2022/09/29 05:08:44;;;;;;;5.50;5.00;;;;;;;6.33;100.00;96644.75;5097382;28;20230;-65
2022/09/29 05:11:11;;;;;;;5.43;4.70;;;;;;;6.31;100.00;96649.28;5097087;28;20321;-65
2022/09/29 05:13:38;;;;;;;5.47;4.77;;;;;;;6.33;100.00;96655.25;5097707;28;20265;-65
2022/09/29 05:16:05;;;;;;;5.77;5.17;;;;;;;6.41;100.00;96657.31;5097371;28;20305;-66
2022/09/29 05:18:32;;;;;;;5.83;4.83;;;;;;;6.43;100.00;96661.47;5096328;28;20261;-65
2022/09/29 05:21:03;;;;;;;7.80;5.17;;;;;;;6.43;100.00;96663.25;5097548;28;20254;-66
2022/09/29 05:23:31;;;;;;;6.20;5.10;;;;;;;6.43;100.00;96664.09;5095655;28;20254;-66
2022/09/29 05:26:01;;;;;;;6.40;4.70;;;;;;;6.40;100.00;96672.19;5096748;28;20593;-67
2022/09/29 05:28:28;;;;;;;7.40;5.10;;;;;;;6.40;100.00;96672.19;5097223;28;20543;-67
2022/09/29 05:30:54;;;;;;;6.23;4.60;;;;;;;6.43;100.00;96679.84;5097635;28;20325;-67
2022/09/29 05:33:21;;;;;;;6.67;4.87;;;;;;;6.43;100.00;96671.97;5096520;28;20253;-67
2022/09/29 05:35:47;;;;;;;6.93;4.90;;;;;;;6.44;100.00;96673.66;5099562;28;20258;-67
2022/09/29 05:38:15;;;;;;;6.13;5.53;;;;;;;6.42;100.00;96675.53;5103307;28;20262;-67
2022/09/29 05:40:43;;;;;;;6.40;4.80;;;;;;;6.41;100.00;96679.09;5112557;28;20233;-67
2022/09/29 05:43:09;;;;;;;5.23;4.40;;;;;;;6.43;100.00;96679.84;5101321;28;20261;-67
2022/09/29 05:45:36;;;;;;;5.63;4.70;;;;;;;6.42;100.00;96679.97;5108745;28;20577;-66
2022/09/29 05:48:03;;;;;;;5.73;4.80;;;;;;;6.41;100.00;96679.09;5106507;28;20237;-66
2022/09/29 05:50:30;;;;;;;7.07;5.17;;;;;;;6.41;100.00;96679.09;5100607;28;20632;-67
2022/09/29 05:53:01;;;;;;;6.07;4.93;;;;;;;6.47;100.00;96678.66;5100791;28;20245;-67
2022/09/29 05:55:28;;;;;;;7.50;5.20;;;;;;;6.47;100.00;96678.66;5104548;28;20226;-66
2022/09/29 05:57:56;;;;;;;7.37;5.40;;;;;;;6.51;100.00;96679.25;5104192;28;20261;-67
2022/09/29 06:00:23;;;;;;;9.20;5.30;;;;;;;6.51;100.00;96679.25;5112765;28;20268;-66
2022/09/29 06:02:49;;;;;;;10.30;5.70;;;;;;;6.52;100.00;96676.50;5100098;28;20335;-66
2022/09/29 06:05:16;;;;;;;6.57;5.80;;;;;;;6.57;100.00;96677.00;5108613;28;20269;-66
2022/09/29 06:07:43;;;;;;;8.80;6.50;;;;;;;6.64;100.00;96688.69;5108753;28;20283;-66
2022/09/29 06:10:09;;;;;;;7.63;5.50;;;;;;;6.68;100.00;96671.78;5099435;28;20347;-66
2022/09/29 06:12:37;;;;;;;6.27;5.10;;;;;;;6.69;100.00;96668.19;5100094;28;20618;-65
2022/09/29 06:15:06;;;;;;;6.57;5.10;;;;;;;6.70;100.00;96664.59;5107124;28;20268;-66
2022/09/29 06:17:33;;;;;;;7.60;5.03;;;;;;;6.75;100.00;96662.47;5107800;28;20265;-65
2022/09/29 06:20:00;;;;;;;5.83;4.73;;;;;;;6.80;100.00;96660.34;5099874;28;20230;-64
2022/09/29 06:22:27;;;;;;;7.13;5.10;;;;;;;6.89;100.00;96667.47;5100151;28;20278;-65
2022/09/29 06:24:54;;;;;;;5.97;5.00;;;;;;;6.93;100.00;96671.53;5108111;28;20227;-65
2022/09/29 06:27:20;;;;;;;6.77;4.67;;;;;;;7.01;100.00;96679.66;5108197;28;20226;-66
2022/09/29 06:29:47;;;;;;;9.07;5.47;;;;;;;7.14;100.00;96684.81;5099708;28;20258;-66
2022/09/29 06:32:15;;;;;;;7.30;5.37;;;;;;;7.26;100.00;96679.41;5112051;28;20552;-66
2022/09/29 06:37:35;;;;;;;7.37;5.50;;;;;;;7.51;100.00;96687.00;5111925;28;20576;-66
2022/09/29 06:40:02;;;;;;;8.03;5.50;;;;;;;7.63;100.00;96697.41;5111172;28;20261;-66
2022/09/29 06:42:28;;;;;;;7.10;5.93;;;;;;;7.71;100.00;96697.59;5094683;28;20218;-66
2022/09/29 06:44:55;;;;;;;7.67;5.90;;;;;;;7.75;100.00;96703.44;5098623;28;20653;-65
2022/09/29 06:47:23;;;;;;;7.53;6.17;;;;;;;7.73;100.00;96700.94;5107236;28;20565;-66
2022/09/29 06:49:50;;;;;;;6.93;5.73;;;;;;;7.76;100.00;96710.38;5099592;28;20226;-67
2022/09/29 06:52:17;;;;;;;6.57;5.13;;;;;;;7.80;100.00;96701.28;5112062;28;20242;-65
2022/09/29 06:54:43;;;;;;;5.77;5.17;;;;;;;7.86;100.00;96706.06;5099238;28;20258;-66
2022/09/29 06:57:10;;;;;;;7.07;5.27;;;;;;;7.92;100.00;96702.94;5096171;28;20289;-66
2022/09/29 06:59:37;;;;;;;7.03;5.90;;;;;;;8.02;100.00;96711.75;5098307;28;20223;-65
2022/09/29 07:02:03;;;;;;;6.77;5.33;;;;;;;8.15;100.00;96707.16;5111357;28;20252;-65
2022/09/29 07:04:31;;;;;;;8.73;6.30;;;;;;;8.29;100.00;96709.50;5103085;28;20306;-66
2022/09/29 07:06:58;;;;;;;7.87;5.63;;;;;;;8.40;100.00;96706.84;5102790;28;20289;-66
2022/09/29 07:09:25;;;;;;;6.27;5.67;;;;;;;8.50;100.00;96702.47;5109689;28;20292;-67
2022/09/29 07:11:52;;;;;;;7.37;5.80;;;;;;;8.60;100.00;96703.38;5099304;28;20329;-65
2022/09/29 07:14:21;;;;;;;6.27;5.37;;;;;;;8.71;100.00;96708.56;5108897;28;20266;-65
2022/09/29 07:16:48;;;;;;;8.20;6.40;;;;;;;8.78;100.00;96707.94;5106213;28;20304;-65
2022/09/29 07:19:16;;;;;;;6.87;5.77;;;;;;;8.88;100.00;96708.81;5099871;28;20251;-65
2022/09/29 07:21:44;;;;;;;8.10;5.87;;;;;;;9.01;100.00;96708.63;5112084;28;20224;-65
2022/09/29 07:24:11;;;;;;;9.20;6.47;;;;;;;9.07;100.00;96708.91;5102316;28;20258;-65
2022/09/29 07:26:38;;;;;;;8.83;6.40;;;;;;;9.11;100.00;96712.97;5104448;28;20228;-65
2022/09/29 07:29:05;;;;;;;7.90;5.50;;;;;;;9.15;100.00;96710.88;5109348;28;20252;-66
2022/09/29 07:31:32;;;;;;;7.77;5.23;;;;;;;9.17;100.00;96715.06;5097723;28;20616;-66
2022/09/29 07:33:58;;;;;;;8.73;6.23;;;;;;;9.18;100.00;96722.00;5106132;28;20667;-66
2022/09/29 07:36:25;;;;;;;7.63;5.93;;;;;;;9.19;100.00;96720.22;5105414;28;20228;-65
2022/09/29 07:38:53;;;;;;;7.10;6.13;;;;;;;9.23;100.00;96722.44;5111894;28;20260;-66
2022/09/29 07:41:21;;;;;;;6.93;5.90;;;;;;;9.28;100.00;96727.31;5113039;28;20265;-67
2022/09/29 07:43:48;;;;;;;9.23;6.17;;;;;;;9.29;100.00;96728.97;5099202;28;20275;-66
2022/09/29 07:46:15;;;;;;;7.57;6.10;;;;;;;9.30;100.00;96726.22;5098654;28;20223;-66
2022/09/29 07:48:43;;;;;;;8.27;5.80;;;;;;;9.38;100.00;96725.56;5099955;28;20233;-66
2022/09/29 07:51:12;;;;;;;9.07;6.57;;;;;;;9.54;100.00;96728.56;5099486;28;20622;-66
2022/09/29 07:53:39;;;;;;;8.03;6.70;;;;;;;9.67;100.00;96729.97;5102767;28;20294;-65
2022/09/29 07:56:09;;;;;;;8.13;6.10;;;;;;;9.80;100.00;96732.38;5103700;28;20309;-65
2022/09/29 07:58:36;;;;;;;8.50;6.50;;;;;;;9.94;100.00;96734.63;5116643;28;20257;-65
2022/09/29 08:01:05;;;;;;;8.07;6.47;;;;;;;10.10;100.00;96727.06;5116285;28;20405;-65
2022/09/29 08:03:32;;;;;;;8.63;5.93;;;;;;;10.27;100.00;96742.22;5116228;28;20309;-65
2022/09/29 08:05:59;;;;;;;7.50;6.70;;;;;;;10.42;100.00;96738.19;5118366;28;20589;-66
2022/09/29 08:08:26;;;;;;;9.73;6.53;;;;;;;10.50;100.00;96739.16;5118882;28;20258;-66
2022/09/29 08:10:52;;;;;;;7.00;6.30;;;;;;;10.61;100.00;96738.19;5119379;28;20268;-65
2022/09/29 08:13:20;;;;;;;7.87;6.00;;;;;;;10.66;100.00;96739.44;5119276;28;20629;-65
2022/09/29 08:15:47;;;;;;;7.00;5.87;;;;;;;10.69;100.00;96740.94;5119417;28;20253;-65
2022/09/29 08:18:14;;;;;;;8.10;5.90;;;;;;;10.72;100.00;96738.03;5118763;28;20267;-65
2022/09/29 08:20:40;;;;;;;8.40;6.27;;;;;;;10.84;100.00;96742.19;5119272;28;20261;-65
2022/09/29 08:23:07;;;;;;;7.80;5.73;;;;;;;10.95;100.00;96742.06;5119264;28;20257;-65
2022/09/29 08:25:35;;;;;;;9.73;5.80;;;;;;;11.02;100.00;96743.97;5119065;28;20233;-65
2022/09/29 08:28:02;;;;;;;8.33;6.10;;;;;;;11.14;100.00;96742.00;5117326;28;20231;-65
2022/09/29 08:30:31;;;;;;;6.77;6.07;;;;;;;11.24;100.00;96751.56;5119069;28;20233;-65
2022/09/29 08:32:57;;;;;;;6.33;5.30;;;;;;;11.39;100.00;96751.94;5118937;28;20590;-65
2022/09/29 08:35:24;;;;;;;6.57;5.33;;;;;;;11.51;100.00;96756.09;5118949;28;20267;-65
2022/09/29 08:37:53;;;;;;;7.23;5.40;;;;;;;11.60;100.00;96757.88;5118410;28;20223;-65
2022/09/29 08:40:21;;;;;;;9.77;5.67;;;;;;;11.57;100.00;96760.81;5118879;28;20222;-65
2022/09/29 08:42:57;;;;;;;8.87;5.97;;;;;;;11.65;100.00;96758.28;5104334;28;20253;-65
2022/09/29 08:45:29;;;;;;;7.83;5.20;;;;;;;11.78;100.00;96761.44;5099615;28;20304;-67
2022/09/29 08:48:06;;;;;;;7.80;5.00;;;;;;;11.86;100.00;96761.56;5096715;28;20657;-65
2022/09/29 08:50:37;;;;;;;7.37;5.07;;;;;;;11.97;100.00;96763.97;5094145;28;20233;-65
2022/09/29 08:53:08;;;;;;;5.63;4.80;;;;;;;12.04;100.00;96768.53;5101545;28;20280;-67
2022/09/29 08:55:45;;;;;;;7.93;5.27;;;;;;;12.09;100.00;96768.09;5099924;28;20268;-67
2022/09/29 08:58:15;;;;;;;6.73;5.20;;;;;;;12.08;98.79;96772.56;5112236;28;20224;-66
2022/09/29 09:00:49;;;;;;;7.43;4.97;;;;;;;12.04;99.28;96773.84;5102985;28;20318;-66
2022/09/29 09:03:39;;;;;;;7.83;4.80;;;;;;;12.05;99.83;96774.69;5109835;28;20275;-66
2022/09/29 09:06:23;;;;;;;5.83;4.73;;;;;;;12.02;100.00;96772.31;5113004;28;20308;-66
2022/09/29 09:09:24;;;;;;;5.27;4.27;;;;;;;11.93;100.00;96779.31;5113477;28;20773;-65
2022/09/29 09:12:20;;;;;;;5.53;4.70;;;;;;;11.79;100.00;96771.06;5097628;28;20255;-66
2022/09/29 09:15:00;;;;;;;6.20;4.93;;;;;;;11.76;100.00;96771.34;5099105;28;20585;-66
2022/09/29 09:17:40;;;;;;;4.80;4.30;;;;;;;11.86;100.00;96780.09;5098620;28;20523;-66
2022/09/29 09:20:26;;;;;;;8.03;5.57;;;;;;;12.09;100.00;96773.38;5096143;28;20263;-64
2022/09/29 09:22:57;;;;;;;6.60;4.70;;;;;;;12.31;100.00;96778.28;5100937;28;20222;-64
2022/09/29 09:25:30;;;;;;;6.00;4.50;;;;;;;12.47;100.00;96784.59;5098784;28;20219;-64
2022/09/29 09:28:04;;;;;;;6.00;4.83;;;;;;;12.68;99.08;96781.63;5097292;28;20311;-64
2022/09/29 09:30:37;;;;;;;5.23;4.50;;;;;;;12.86;99.17;96785.13;5098906;28;20306;-65
2022/09/29 09:33:11;;;;;;;6.47;4.60;;;;;;;13.05;99.14;96790.28;5099608;28;20704;-65
2022/09/29 09:35:43;;;;;;;4.77;4.27;;;;;;;13.21;98.64;96791.25;5097626;28;20272;-64
2022/09/29 09:38:15;;;;;;;4.30;3.90;;;;;;;13.31;96.97;96791.16;5098169;28;20572;-65
2022/09/29 09:40:46;;;;;;;5.03;4.33;;;;;;;13.37;95.82;96801.97;5099395;28;20295;-66
2022/09/29 09:43:18;;;;;;;4.70;3.80;;;;;;;13.41;94.75;96802.50;5111941;28;20249;-65
2022/09/29 09:45:50;;;;;;;5.10;3.90;;;;;;;13.45;94.29;96801.22;5111182;28;20225;-65
2022/09/29 09:48:23;;;;;;;3.90;3.50;;;;;;;13.49;93.63;96799.91;5111813;28;20310;-67
2022/09/29 09:50:51;;;;;;;5.63;3.63;;;;;;;13.53;92.62;96795.94;5112878;28;20311;-67
2022/09/29 09:53:24;;;;;;;4.83;3.57;;;;;;;13.55;93.15;96800.13;5110924;28;20248;-65
2022/09/29 09:55:58;;;;;;;4.80;3.67;;;;;;;13.62;92.46;96790.53;5108010;28;20261;-67
2022/09/29 09:58:59;;;;;;;5.43;3.60;;;;;;;13.69;91.90;96796.88;5101328;28;20342;-66
2022/09/29 10:01:26;;;;;;;4.20;3.07;;;;;;;13.73;89.50;96797.38;5093201;28;20261;-66
2022/09/29 10:03:53;;;;;;;3.23;2.93;;;;;;;13.77;87.47;96799.59;5097412;28;20262;-67
2022/09/29 10:06:21;;;;;;;3.03;2.70;;;;;;;13.85;86.87;96796.13;5111070;28;20292;-68
2022/09/29 10:08:49;;;;;;;3.20;2.77;;;;;;;13.98;86.76;96796.53;5113297;28;20261;-67
2022/09/29 10:11:23;;;;;;;3.07;2.77;;;;;;;14.09;83.50;96798.91;5113253;28;20261;-68
2022/09/29 10:14:00;;;;;;;5.33;2.93;;;;;;;14.13;81.34;96793.09;5110614;28;20695;-65
2022/09/29 10:16:32;;;;;;;3.43;2.37;;;;;;;14.28;82.70;96798.69;5113190;28;20305;-66
2022/09/29 10:18:58;;;;;;;3.53;2.20;;;;;;;14.32;80.07;96794.72;5113329;28;20566;-68
2022/09/29 10:21:37;;;;;;;2.93;2.47;;;;;;;14.39;78.70;96799.22;5113338;28;20603;-66
2022/09/29 10:24:07;;;;;;;4.43;2.60;;;;;;;14.46;77.86;96791.41;5110909;28;20265;-67
2022/09/29 10:26:37;;;;;;;3.90;2.50;;;;;;;14.54;79.00;96789.63;5113153;28;20629;-67
2022/09/29 10:29:19;;;;;;;3.47;2.77;;;;;;;14.71;79.53;96795.78;5113051;28;20257;-66
2022/09/29 10:32:01;;;;;;;5.93;2.70;;;;;;;14.80;76.38;96794.84;5112980;28;20262;-67
2022/09/29 10:34:29;;;;;;;3.13;2.70;;;;;;;14.79;75.93;96798.50;5101414;28;20607;-66
2022/09/29 10:37:00;;;;;;;3.30;2.70;;;;;;;14.79;75.63;96790.50;5112960;28;20226;-66
2022/09/29 10:39:33;;;;;;;3.50;2.70;;;;;;;14.96;74.32;96792.19;5109160;28;20255;-66
2022/09/29 10:41:59;;;;;;;3.33;3.00;;;;;;;15.11;75.35;96794.03;5112351;28;20665;-66
2022/09/29 10:44:32;;;;;;;4.37;3.23;;;;;;;15.26;74.59;96792.34;5112867;28;20261;-67
2022/09/29 10:47:00;;;;;;;5.37;3.30;;;;;;;15.57;74.26;96790.69;5112842;28;20238;-65
2022/09/29 10:49:28;;;;;;;4.77;3.17;;;;;;;15.86;71.34;96795.44;5110300;28;20235;-67
2022/09/29 10:52:02;;;;;;;4.77;3.20;;;;;;;15.75;69.30;96790.47;5097779;28;20670;-67
2022/09/29 10:54:32;;;;;;;6.27;3.30;;;;;;;15.69;68.88;96789.34;5095416;28;20266;-67
2022/09/29 10:56:59;;;;;;;4.40;2.90;;;;;;;15.71;70.73;96794.50;5097689;28;20250;-67
2022/09/29 10:59:27;;;;;;;3.20;2.53;;;;;;;15.75;69.94;96786.00;5110233;28;20605;-67
2022/09/29 11:01:56;;;;;;;6.57;3.23;;;;;;;15.87;69.22;96792.63;5112879;28;20514;-67
2022/09/29 11:04:28;;;;;;;4.03;2.80;;;;;;;15.92;68.19;96789.44;5112826;28;20638;-66
2022/09/29 11:06:55;;;;;;;4.07;2.93;;;;;;;16.02;65.57;96784.75;5110540;28;20252;-66
2022/09/29 11:09:36;;;;;;;4.03;2.50;;;;;;;16.06;67.56;96791.41;5110958;28;20271;-66
2022/09/29 11:12:02;;;;;;;5.20;3.07;;;;;;;16.10;64.88;96788.22;5112770;28;20638;-67
2022/09/29 11:14:31;;;;;;;4.80;2.73;;;;;;;16.13;63.23;96787.06;5113656;28;20280;-67
2022/09/29 11:16:59;;;;;;;2.70;2.50;;;;;;;16.06;65.55;96789.56;5114156;28;20265;-66
2022/09/29 11:19:27;;;;;;;3.47;2.93;;;;;;;15.88;63.20;96788.16;5101559;28;20588;-66
2022/09/29 11:22:31;;;;;;;3.17;2.87;;;;;;;15.72;66.08;96788.16;5101466;28;20225;-67
2022/09/29 11:25:26;;;;;;;3.20;2.53;;;;;;;15.82;68.34;96788.81;5104102;28;20263;-67
2022/09/29 11:28:09;;;;;;;3.13;2.30;;;;;;;15.86;68.37;96790.13;5092971;28;20267;-67
2022/09/29 11:30:47;;;;;;;3.00;2.70;;;;;;;15.95;70.20;96783.78;5115133;28;20258;-67
2022/09/29 11:33:28;;;;;;;3.67;2.57;;;;;;;16.13;68.71;96787.88;5099399;28;20321;-66
2022/09/29 11:36:01;;;;;;;3.53;2.50;;;;;;;16.18;65.73;96782.84;5101105;28;20260;-67
2022/09/29 11:38:45;;;;;;;4.07;2.80;;;;;;;16.25;66.91;96792.66;5102540;28;20323;-67
2022/09/29 11:41:32;;;;;;;4.27;2.77;;;;;;;16.27;67.40;96795.97;5101149;28;20271;-67
2022/09/29 11:44:08;;;;;;;2.93;2.63;;;;;;;16.29;67.15;96796.66;5101059;28;20256;-67
2022/09/29 11:46:50;;;;;;;3.00;2.70;;;;;;;16.33;65.67;96800.63;5103564;28;20263;-67
2022/09/29 11:49:30;;;;;;;4.70;2.70;;;;;;;16.15;64.17;96796.53;5101039;28;20265;-67